Time;durP1;ratioP1;P1;durP2;ratioP2;P2;SDS_P1;SDS_P2;PMS_P1;PMS_P2;Temp;Humidity;BMP_temperature;BMP_pressure;BME280_temperature;BME280_humidity;BME280_pressure;Samples;Min_cycle;Max_cycle;Signal;HPM_P1;HPM_P2
2023/06/23 00:01:47;;;;;;;6.00;5.50;;;20.90;90.70;;;23.18;61.26;101343.69;5054475;28;20202;-56
2023/06/23 00:04:14;;;;;;;6.07;5.57;;;20.80;90.60;;;23.15;61.47;101349.56;5049095;28;20735;-57
2023/06/23 00:06:41;;;;;;;7.60;5.23;;;20.80;90.80;;;23.14;61.58;101343.38;5056235;28;20212;-54
2023/06/23 00:09:13;;;;;;;5.50;5.00;;;20.80;90.90;;;23.06;61.48;101345.66;5055165;28;20293;-54
2023/06/23 00:11:41;;;;;;;6.63;5.27;;;20.70;90.60;;;22.92;61.03;101355.06;5055247;28;20643;-56
2023/06/23 00:14:08;;;;;;;5.87;5.27;;;20.70;90.30;;;22.78;61.31;101333.88;5056172;28;20275;-57
2023/06/23 00:16:37;;;;;;;5.53;5.03;;;20.60;90.20;;;22.80;61.50;101347.03;5056202;28;20660;-57
2023/06/23 00:19:04;;;;;;;5.57;5.13;;;20.50;90.50;;;22.77;61.17;101340.28;5046899;28;20201;-57
2023/06/23 00:21:31;;;;;;;6.10;5.50;;;20.50;90.40;;;22.78;61.33;101349.97;5038802;28;20659;-56
2023/06/23 00:23:58;;;;;;;6.93;5.70;;;20.40;90.40;;;22.80;61.30;101347.03;5055722;28;20197;-57
2023/06/23 00:26:25;;;;;;;7.00;5.53;;;20.40;90.60;;;22.86;61.31;101357.66;5056103;28;20281;-57
2023/06/23 00:28:51;;;;;;;5.60;5.10;;;20.40;90.80;;;22.92;61.26;101362.06;5055955;28;20196;-56
2023/06/23 00:31:19;;;;;;;5.97;5.47;;;20.40;91.00;;;23.02;61.19;101358.75;5039161;28;20195;-57
2023/06/23 00:33:47;;;;;;;5.80;5.30;;;20.40;91.10;;;23.09;60.96;101372.84;5035525;28;20186;-55
2023/06/23 00:36:14;;;;;;;5.87;5.37;;;20.40;91.10;;;23.15;61.01;101376.44;5035775;28;20272;-57
2023/06/23 00:38:42;;;;;;;6.90;6.30;;;20.50;91.10;;;23.20;60.83;101390.75;5055900;28;20212;-54
2023/06/23 00:41:09;;;;;;;5.77;5.27;;;20.50;91.10;;;23.21;60.52;101391.56;5055969;28;20208;-54
2023/06/23 00:43:36;;;;;;;6.10;5.60;;;20.50;91.10;;;23.21;60.68;101397.78;5055497;28;20198;-53
2023/06/23 00:46:14;;;;;;;6.27;5.67;;;20.50;91.10;;;23.22;60.58;101403.97;5050504;28;20215;-56
2023/06/23 00:48:41;;;;;;;7.60;6.83;;;20.50;91.10;;;23.24;60.60;101428.72;5035712;28;20206;-55
2023/06/23 00:51:10;;;;;;;8.77;6.47;;;20.50;91.10;;;23.27;60.71;101428.25;5035757;28;20194;-56
2023/06/23 00:53:38;;;;;;;8.70;6.97;;;20.50;91.10;;;23.29;60.58;101432.31;5055114;28;20285;-56
2023/06/23 00:56:06;;;;;;;6.67;5.93;;;20.50;91.10;;;23.32;60.51;101425.66;5055590;28;20214;-54
2023/06/23 00:58:35;;;;;;;5.83;5.30;;;20.50;91.10;;;23.33;60.54;101416.50;5055670;28;20268;-55
2023/06/23 01:01:03;;;;;;;6.80;6.20;;;20.60;91.10;;;23.36;60.34;101405.31;5055087;28;20684;-58
2023/06/23 01:03:31;;;;;;;5.60;5.10;;;20.60;91.00;;;23.36;59.92;101399.94;5054868;28;20678;-56
2023/06/23 01:06:12;;;;;;;5.77;5.17;;;20.60;90.80;;;23.34;60.01;101407.41;5055662;28;20209;-57
2023/06/23 01:08:51;;;;;;;5.13;4.63;;;20.60;90.90;;;23.35;60.03;101412.56;5045179;28;20201;-58
2023/06/23 01:11:25;;;;;;;5.50;5.00;;;20.60;90.80;;;23.33;59.87;101416.50;5055576;28;20184;-55
2023/06/23 01:14:01;;;;;;;5.93;5.20;;;20.50;90.70;;;23.34;59.85;101420.84;5054714;28;20214;-57
2023/06/23 01:16:32;;;;;;;5.87;4.90;;;20.60;90.80;;;23.36;60.04;101413.38;5054988;28;20776;-54
2023/06/23 01:19:15;;;;;;;7.07;4.70;;;20.60;90.90;;;23.38;59.68;101419.31;5054259;28;20245;-55
2023/06/23 01:22:00;;;;;;;5.33;4.83;;;20.60;90.80;;;23.33;59.70;101425.41;5055198;28;20213;-56
2023/06/23 01:24:47;;;;;;;5.50;5.03;;;20.50;90.70;;;23.33;59.84;101427.25;5053222;28;20292;-56
2023/06/23 01:27:40;;;;;;;4.23;3.90;;;20.50;90.90;;;23.34;59.84;101429.69;5035053;28;20567;-57
2023/06/23 01:30:13;;;;;;;5.57;4.70;;;20.50;90.90;;;23.34;59.80;101428.91;5035165;28;20610;-58
2023/06/23 01:32:48;;;;;;;4.83;4.43;;;20.50;90.80;;;23.36;59.86;101421.44;5034962;28;20194;-57
2023/06/23 01:35:34;;;;;;;5.33;4.83;;;20.50;90.80;;;23.31;59.73;101414.06;5035027;28;20778;-57
2023/06/23 01:38:07;;;;;;;5.87;5.30;;;20.50;90.90;;;23.30;59.92;101414.31;5050058;28;20542;-58
2023/06/23 01:40:40;;;;;;;5.30;4.73;;;20.50;90.90;;;23.30;59.76;101423.19;5054619;28;20182;-54
2023/06/23 01:43:11;;;;;;;5.17;4.77;;;20.50;90.80;;;23.32;59.69;101414.91;5048253;28;20260;-59
2023/06/23 01:45:41;;;;;;;4.67;4.27;;;20.50;90.90;;;23.31;59.53;101424.00;5053825;28;20249;-57
2023/06/23 01:48:12;;;;;;;7.20;5.03;;;20.40;90.70;;;23.31;59.58;101421.31;5054786;28;20304;-59
2023/06/23 01:50:42;;;;;;;5.53;5.03;;;20.40;90.80;;;23.31;59.40;101430.19;5054852;28;20561;-55
2023/06/23 01:53:11;;;;;;;6.23;4.87;;;20.40;90.60;;;23.31;59.62;101432.06;5054176;28;20194;-57
2023/06/23 01:55:40;;;;;;;5.60;4.93;;;20.40;90.60;;;23.30;59.29;101443.84;5054136;28;20547;-59
2023/06/23 01:58:09;;;;;;;5.27;4.77;;;20.40;90.40;;;23.32;59.10;101441.78;5043971;28;20214;-56
2023/06/23 02:00:37;;;;;;;5.33;4.83;;;20.40;90.30;;;23.34;58.76;101439.66;5035313;28;20213;-55
2023/06/23 02:03:08;;;;;;;5.00;4.53;;;20.40;90.20;;;23.32;58.57;101441.78;5048880;28;20198;-58
2023/06/23 02:05:37;;;;;;;5.33;4.93;;;20.50;90.20;;;23.36;58.77;101442.94;5042891;28;20265;-54
2023/06/23 02:08:07;;;;;;;5.27;4.80;;;20.50;90.20;;;23.39;58.52;101445.94;5054067;28;20198;-58
2023/06/23 02:10:36;;;;;;;5.13;4.73;;;20.50;90.10;;;23.40;58.57;101442.22;5050527;28;20610;-58
2023/06/23 02:13:06;;;;;;;6.07;5.50;;;20.50;90.10;;;23.42;58.33;101444.66;5033964;28;20269;-56
2023/06/23 02:15:35;;;;;;;6.00;5.50;;;20.60;89.90;;;23.42;58.29;101447.34;5048145;28;20585;-56
2023/06/23 02:18:07;;;;;;;5.20;4.80;;;20.60;90.20;;;23.44;58.23;101435.28;5054191;28;20204;-58
2023/06/23 02:20:38;;;;;;;5.87;4.60;;;20.60;89.70;;;23.44;58.01;101437.16;5043363;28;20218;-53
2023/06/23 02:23:08;;;;;;;5.23;4.53;;;20.60;90.00;;;23.45;57.82;101430.75;5049058;28;20525;-56
2023/06/23 02:25:36;;;;;;;5.10;4.70;;;20.50;89.20;;;23.46;58.06;101421.63;5045911;28;20301;-55
2023/06/23 02:28:04;;;;;;;5.33;4.83;;;20.60;89.50;;;23.52;58.10;101415.28;5042899;28;20280;-55
2023/06/23 02:30:33;;;;;;;5.20;4.70;;;20.60;89.50;;;23.55;57.66;101412.09;5053715;28;20213;-57
2023/06/23 02:33:00;;;;;;;5.10;4.60;;;20.70;89.10;;;23.58;58.01;101422.38;5053389;28;20196;-56
2023/06/23 02:35:30;;;;;;;4.77;4.37;;;20.70;89.00;;;23.62;57.62;101423.50;5050203;28;20221;-56
2023/06/23 02:38:02;;;;;;;4.93;4.53;;;20.70;88.60;;;23.65;57.33;101423.03;5034291;28;20259;-59
2023/06/23 02:40:34;;;;;;;5.23;4.57;;;20.80;88.70;;;23.70;57.49;101427.69;5038764;28;20178;-56
2023/06/23 02:43:10;;;;;;;6.47;4.83;;;20.80;88.60;;;23.73;57.37;101432.53;5052331;28;20231;-59
2023/06/23 02:45:42;;;;;;;5.50;5.00;;;20.90;88.70;;;23.76;57.32;101432.88;5053441;28;20668;-55
2023/06/23 02:48:17;;;;;;;5.57;5.07;;;20.90;88.30;;;23.78;56.89;101449.59;5053561;28;20696;-58
2023/06/23 02:50:49;;;;;;;5.20;4.47;;;20.90;88.20;;;23.81;57.29;101451.78;5052717;28;20182;-58
2023/06/23 02:53:22;;;;;;;4.60;4.20;;;20.90;88.40;;;23.82;57.26;101453.41;5053510;28;20204;-57
2023/06/23 02:56:00;;;;;;;5.33;4.83;;;21.00;88.60;;;23.85;57.47;101446.72;5048941;28;20630;-57
2023/06/23 02:58:30;;;;;;;4.53;4.17;;;21.00;88.60;;;23.90;57.32;101442.25;5050781;28;20204;-58
2023/06/23 03:01:04;;;;;;;4.63;4.23;;;21.10;88.20;;;23.94;57.07;101446.06;5040395;28;20708;-57
2023/06/23 03:03:34;;;;;;;4.93;4.53;;;21.10;88.30;;;23.98;57.33;101466.06;5050175;28;20194;-59
2023/06/23 03:06:04;;;;;;;4.13;3.73;;;21.20;88.20;;;24.01;57.05;101459.38;5032860;28;20242;-59
2023/06/23 03:08:32;;;;;;;4.70;4.23;;;21.20;89.10;;;24.06;57.10;101478.25;5035646;28;20277;-58
2023/06/23 03:10:59;;;;;;;4.50;4.10;;;21.20;88.10;;;24.11;56.66;101476.50;5044478;28;20637;-58
2023/06/23 03:13:26;;;;;;;5.33;4.93;;;21.30;87.20;;;24.11;56.18;101473.81;5056805;28;20190;-58
2023/06/23 03:16:00;;;;;;;4.70;4.30;;;21.30;86.80;;;24.07;55.90;101471.88;5045668;28;20233;-59
2023/06/23 03:18:34;;;;;;;4.33;3.93;;;21.20;86.40;;;24.05;56.27;101469.41;5037621;28;20642;-58
2023/06/23 03:21:07;;;;;;;5.70;4.87;;;21.20;86.40;;;24.05;56.11;101474.78;5037436;28;20205;-57
2023/06/23 03:23:39;;;;;;;4.93;4.53;;;21.20;86.60;;;24.04;55.94;101491.97;5055885;28;20689;-58
2023/06/23 03:26:10;;;;;;;4.37;3.97;;;21.20;86.40;;;24.02;55.98;101496.78;5057001;28;20209;-58
2023/06/23 03:28:43;;;;;;;4.90;4.40;;;21.20;86.40;;;23.98;55.86;101501.03;5056996;28;20200;-59
2023/06/23 03:31:15;;;;;;;5.00;4.50;;;21.20;86.20;;;23.97;56.07;101504.78;5056791;28;20588;-55
2023/06/23 03:33:47;;;;;;;5.03;4.57;;;21.20;86.40;;;23.94;56.29;101510.63;5037466;28;20190;-57
2023/06/23 03:36:21;;;;;;;5.67;4.93;;;21.20;87.30;;;23.91;56.21;101516.53;5036749;28;20210;-57
2023/06/23 03:38:58;;;;;;;5.67;5.17;;;21.10;86.50;;;23.89;56.12;101518.63;5037115;28;20762;-57
2023/06/23 03:41:28;;;;;;;5.17;4.70;;;21.10;86.50;;;23.88;56.68;101526.94;5048704;28;20189;-57
2023/06/23 03:44:03;;;;;;;4.93;4.40;;;21.10;86.70;;;23.88;56.08;101533.13;5056432;28;20277;-60
2023/06/23 03:46:44;;;;;;;6.00;5.40;;;21.10;87.20;;;23.88;56.41;101533.13;5046541;28;20238;-59
2023/06/23 03:49:14;;;;;;;5.33;4.43;;;21.10;87.00;;;23.89;56.25;101540.13;5036739;28;20647;-56
2023/06/23 03:51:47;;;;;;;4.87;4.43;;;21.10;86.90;;;23.86;56.05;101543.31;5036798;28;20655;-59
2023/06/23 03:54:16;;;;;;;5.60;4.80;;;21.10;86.90;;;23.86;56.14;101548.72;5046078;28;20222;-57
2023/06/23 03:56:47;;;;;;;5.47;4.50;;;21.00;87.00;;;23.85;56.79;101548.94;5042206;28;20680;-57
2023/06/23 03:59:16;;;;;;;5.57;5.00;;;21.00;87.30;;;23.85;56.30;101549.75;5036329;28;20221;-58
2023/06/23 04:01:47;;;;;;;5.50;5.00;;;21.00;87.30;;;23.85;56.56;101551.63;5054753;28;20582;-58
2023/06/23 04:04:18;;;;;;;5.33;4.83;;;21.00;87.40;;;23.84;56.43;101553.50;5055989;28;20239;-55
2023/06/23 04:06:50;;;;;;;5.43;4.93;;;21.00;87.50;;;23.84;56.64;101555.38;5055945;28;20205;-59
2023/06/23 04:09:19;;;;;;;5.03;4.60;;;21.00;87.50;;;23.84;56.71;101558.91;5055962;28;20190;-59
2023/06/23 04:11:50;;;;;;;5.90;5.40;;;21.00;87.80;;;23.86;56.89;101569.41;5049715;28;20269;-58
2023/06/23 04:14:19;;;;;;;6.20;5.60;;;21.00;87.80;;;23.87;56.50;101568.31;5039880;28;20208;-58
2023/06/23 04:16:51;;;;;;;5.00;4.60;;;21.00;87.70;;;23.87;56.40;101573.69;5055880;28;20210;-59
2023/06/23 04:19:27;;;;;;;6.10;5.50;;;21.00;87.90;;;23.86;56.41;101594.44;5054873;28;20603;-61
2023/06/23 04:21:56;;;;;;;7.93;7.07;;;21.00;87.90;;;23.88;56.65;101589.63;5055732;28;20643;-58
2023/06/23 04:24:25;;;;;;;6.77;6.07;;;21.00;88.00;;;23.91;57.04;101597.22;5055669;28;20685;-54
2023/06/23 04:26:56;;;;;;;7.17;5.57;;;21.10;88.20;;;23.92;56.59;101604.22;5046382;28;20194;-59
2023/06/23 04:29:25;;;;;;;6.50;5.00;;;21.10;88.10;;;23.96;56.92;101610.72;5050932;28;20229;-57
2023/06/23 04:31:55;;;;;;;6.43;4.60;;;21.10;88.00;;;23.98;56.87;101614.03;5056197;28;20229;-58
2023/06/23 04:34:22;;;;;;;6.03;5.20;;;21.10;88.30;;;24.00;57.16;101616.47;5056370;28;20194;-58
2023/06/23 04:36:59;;;;;;;6.20;5.40;;;21.10;88.20;;;24.00;57.07;101625.34;5055571;28;20239;-58
2023/06/23 04:39:34;;;;;;;6.80;5.20;;;21.10;88.00;;;24.00;56.69;101628.03;5055499;28;20178;-59
2023/06/23 04:42:09;;;;;;;6.30;4.93;;;21.10;88.00;;;23.97;57.02;101628.50;5039086;28;20221;-54
2023/06/23 04:44:55;;;;;;;6.03;5.43;;;21.10;88.10;;;23.95;57.12;101632.50;5035364;28;20297;-58
2023/06/23 04:47:28;;;;;;;6.73;5.77;;;21.10;88.30;;;23.97;57.17;101633.91;5035669;28;20280;-56
2023/06/23 04:49:59;;;;;;;8.60;6.90;;;21.10;88.50;;;23.96;57.18;101632.25;5041188;28;20198;-54
2023/06/23 04:52:31;;;;;;;7.70;6.90;;;21.10;88.80;;;23.94;57.79;101629.00;5055347;28;20216;-56
2023/06/23 04:55:02;;;;;;;6.97;5.83;;;21.10;89.90;;;23.94;57.48;101634.38;5055381;28;20220;-57
2023/06/23 04:57:34;;;;;;;6.93;5.90;;;21.10;90.00;;;23.95;57.61;101630.63;5050268;28;20218;-58
2023/06/23 05:00:07;;;;;;;6.20;5.67;;;21.10;89.50;;;23.94;57.79;101631.69;5055337;28;20226;-58
2023/06/23 05:02:37;;;;;;;5.77;4.77;;;21.10;89.50;;;23.97;57.80;101633.06;5055102;28;20209;-57
2023/06/23 05:05:08;;;;;;;4.73;4.33;;;21.10;89.20;;;23.98;57.71;101635.53;5054890;28;20577;-57
2023/06/23 05:07:38;;;;;;;5.93;4.43;;;21.10;89.10;;;24.02;57.34;101635.84;5054828;28;20181;-56
2023/06/23 05:10:08;;;;;;;4.50;4.07;;;21.20;89.20;;;24.05;57.63;101640.75;5051586;28;20241;-58
2023/06/23 05:12:40;;;;;;;5.53;5.03;;;21.20;89.30;;;24.09;57.50;101642.75;5041507;28;20695;-57
2023/06/23 05:15:10;;;;;;;5.33;4.83;;;21.20;89.20;;;24.12;57.26;101636.09;5045569;28;20236;-57
2023/06/23 05:17:40;;;;;;;6.43;5.90;;;21.20;89.10;;;24.15;57.25;101635.59;5054692;28;20570;-55
2023/06/23 05:20:11;;;;;;;6.43;5.83;;;21.30;89.40;;;24.17;57.93;101639.69;5054111;28;20194;-58
2023/06/23 05:22:41;;;;;;;6.87;5.40;;;21.30;89.40;;;24.22;57.28;101641.66;5054097;28;20280;-58
2023/06/23 05:25:10;;;;;;;5.73;5.13;;;21.40;89.20;;;24.25;57.09;101656.50;5042242;28;20249;-58
2023/06/23 05:27:44;;;;;;;6.67;4.60;;;21.40;89.00;;;24.26;57.38;101652.72;5034848;28;20651;-57
2023/06/23 05:30:17;;;;;;;6.10;5.40;;;21.40;88.90;;;24.27;56.98;101652.47;5034648;28;20256;-58
2023/06/23 05:32:48;;;;;;;5.80;5.20;;;21.40;88.80;;;24.28;57.15;101651.44;5034679;28;20266;-59
2023/06/23 05:35:20;;;;;;;5.50;5.00;;;21.40;88.80;;;24.30;57.02;101653.88;5034381;28;20218;-59
2023/06/23 05:37:50;;;;;;;5.97;5.30;;;21.40;88.80;;;24.30;56.97;101653.88;5034160;28;20276;-56
2023/06/23 05:40:18;;;;;;;10.57;9.40;;;21.40;88.70;;;24.30;57.33;101659.25;5040288;28;20178;-57
2023/06/23 05:42:46;;;;;;;6.70;5.97;;;21.40;88.60;;;24.30;57.69;101654.69;5042853;28;20280;-57
2023/06/23 05:45:13;;;;;;;5.67;5.17;;;21.40;88.80;;;24.31;57.03;101653.66;5034433;28;20298;-59
2023/06/23 05:47:49;;;;;;;5.47;4.60;;;21.40;88.80;;;24.30;57.04;101657.38;5052091;28;20220;-61
2023/06/23 05:50:23;;;;;;;6.23;5.17;;;21.50;89.10;;;24.30;57.68;101660.09;5044614;28;20268;-58
2023/06/23 05:52:59;;;;;;;7.43;4.73;;;21.50;89.20;;;24.31;56.94;101663.59;5034494;28;20218;-58
2023/06/23 05:55:29;;;;;;;6.03;5.20;;;21.50;89.10;;;24.35;57.76;101662.03;5034345;28;20305;-58
2023/06/23 05:58:04;;;;;;;7.37;4.70;;;21.40;89.10;;;24.35;57.33;101670.13;5033657;28;20210;-57
2023/06/23 06:00:38;;;;;;;4.33;4.03;;;21.50;89.20;;;24.35;56.98;101667.44;5033807;28;20281;-58
2023/06/23 06:03:12;;;;;;;5.40;4.90;;;21.50;88.90;;;24.34;56.77;101666.63;5052541;28;20194;-57
2023/06/23 06:05:45;;;;;;;5.60;4.67;;;21.50;88.60;;;24.34;57.19;101665.81;5053440;28;20293;-59
2023/06/23 06:08:15;;;;;;;5.13;4.73;;;21.50;88.60;;;24.34;57.40;101677.41;5052968;28;20268;-58
2023/06/23 06:10:44;;;;;;;5.43;4.73;;;21.40;88.90;;;24.36;57.40;101669.06;5053621;28;20269;-58
2023/06/23 06:13:14;;;;;;;5.80;5.23;;;21.50;89.00;;;24.37;57.53;101678.75;5053382;28;20196;-55
2023/06/23 06:15:44;;;;;;;21.53;19.40;;;21.50;89.30;;;24.35;57.61;101676.31;5053198;28;20248;-57
2023/06/23 06:18:15;;;;;;;8.13;7.33;;;21.50;89.10;;;24.36;57.61;101685.22;5052453;28;20214;-57
2023/06/23 06:20:46;;;;;;;5.70;5.07;;;21.50;89.20;;;24.37;57.51;101689.53;5053064;28;20193;-57
2023/06/23 06:23:16;;;;;;;5.83;5.33;;;21.50;89.30;;;24.37;57.38;101694.91;5052423;28;20280;-56
2023/06/23 06:25:53;;;;;;;6.73;6.13;;;21.50;89.40;;;24.37;57.90;101703.00;5053362;28;20209;-59
2023/06/23 06:28:23;;;;;;;6.13;5.47;;;21.50;89.50;;;24.37;57.20;101711.06;5053121;28;20209;-58
2023/06/23 06:30:54;;;;;;;8.50;6.53;;;21.50;89.50;;;24.37;57.70;101713.75;5035571;28;20273;-58
2023/06/23 06:33:23;;;;;;;6.27;5.63;;;21.40;89.70;;;24.35;57.87;101716.69;5039488;28;20198;-59
2023/06/23 06:35:52;;;;;;;6.27;5.67;;;21.50;90.00;;;24.35;57.98;101721.25;5033095;28;20220;-58
2023/06/23 06:38:23;;;;;;;5.50;5.00;;;21.40;90.10;;;24.35;58.40;101726.66;5033136;28;20253;-58
2023/06/23 06:40:53;;;;;;;7.20;6.20;;;21.50;90.50;;;24.42;58.53;101733.53;5040894;28;20289;-59
2023/06/23 06:43:20;;;;;;;6.47;5.93;;;21.50;90.50;;;24.45;58.31;101726.84;5051384;28;20666;-57
2023/06/23 06:45:51;;;;;;;6.77;6.17;;;21.50;90.30;;;24.48;58.58;101729.06;5053009;28;20308;-59
2023/06/23 06:48:20;;;;;;;7.20;6.03;;;21.60;90.50;;;24.49;58.47;101736.06;5052854;28;20587;-58
2023/06/23 06:50:49;;;;;;;7.47;6.73;;;21.60;90.40;;;24.50;58.62;101751.16;5052737;28;20221;-61
2023/06/23 06:53:18;;;;;;;6.87;6.27;;;21.60;90.30;;;24.48;58.08;101758.66;5040009;28;20279;-57
2023/06/23 06:55:47;;;;;;;8.60;7.77;;;21.60;90.40;;;24.47;58.65;101762.41;5034392;28;20310;-58
2023/06/23 06:58:16;;;;;;;7.93;7.13;;;21.50;90.40;;;24.45;58.74;101764.53;5037256;28;20264;-57
2023/06/23 07:00:43;;;;;;;8.83;7.13;;;21.60;90.40;;;24.41;58.92;101769.59;5032643;28;20214;-59
2023/06/23 07:03:12;;;;;;;7.70;6.97;;;21.50;90.40;;;24.42;58.84;101775.78;5037852;28;20646;-58
2023/06/23 07:05:39;;;;;;;6.90;6.30;;;21.50;90.50;;;24.40;58.49;101775.19;5052969;28;20738;-58
2023/06/23 07:08:06;;;;;;;8.97;7.57;;;21.50;90.70;;;24.42;58.91;101773.91;5052263;28;20273;-59
2023/06/23 07:10:35;;;;;;;8.00;7.20;;;21.50;90.60;;;24.41;58.36;101784.91;5046752;28;20300;-57
2023/06/23 07:13:03;;;;;;;8.80;8.00;;;21.50;90.60;;;24.42;58.57;101789.22;5041022;28;20232;-58
2023/06/23 07:15:31;;;;;;;8.97;7.43;;;21.50;90.60;;;24.42;58.49;101786.53;5044137;28;20698;-57
2023/06/23 07:17:58;;;;;;;8.03;7.27;;;21.50;90.50;;;24.42;58.84;101783.84;5032417;28;20207;-60
2023/06/23 07:20:25;;;;;;;8.30;7.60;;;21.50;90.60;;;24.45;59.22;101791.44;5032704;28;20197;-58
2023/06/23 07:22:52;;;;;;;8.87;8.07;;;21.50;90.80;;;24.51;58.98;101790.50;5033612;28;20276;-61
2023/06/23 07:25:19;;;;;;;8.37;6.70;;;21.60;90.90;;;24.56;59.11;101802.16;5039807;28;20237;-56
2023/06/23 07:27:48;;;;;;;8.43;6.80;;;21.60;90.60;;;24.56;58.73;101809.44;5048601;28;20703;-57
2023/06/23 07:30:17;;;;;;;7.43;6.33;;;21.60;90.50;;;24.57;58.78;101808.38;5045712;28;20194;-58
2023/06/23 07:32:45;;;;;;;7.43;6.73;;;21.60;90.40;;;24.59;58.79;101811.66;5052383;28;20263;-59
2023/06/23 07:35:13;;;;;;;8.37;7.20;;;21.70;90.60;;;24.65;58.35;101808.00;5041089;28;20217;-58
2023/06/23 07:37:40;;;;;;;8.63;7.83;;;21.70;90.70;;;24.70;58.37;101816.16;5041838;28;20292;-60
2023/06/23 07:40:09;;;;;;;8.00;7.20;;;21.80;90.80;;;24.76;58.07;101828.66;5049945;28;20570;-60
2023/06/23 07:42:36;;;;;;;9.37;7.77;;;21.80;90.60;;;24.77;58.19;101827.66;5052796;28;20198;-60
2023/06/23 07:45:05;;;;;;;8.30;7.50;;;21.80;90.50;;;24.78;58.25;101829.28;5035994;28;20215;-58
2023/06/23 07:47:33;;;;;;;12.27;8.23;;;21.80;90.50;;;24.79;58.09;101836.31;5036405;28;20186;-59
2023/06/23 07:50:00;;;;;;;9.37;8.43;;;21.80;90.50;;;24.79;58.55;101833.63;5036140;28;20228;-56
2023/06/23 07:52:27;;;;;;;9.03;7.77;;;21.80;90.40;;;24.79;58.76;101847.88;5048301;28;20194;-59
2023/06/23 07:54:54;;;;;;;11.13;9.20;;;21.80;90.60;;;24.83;58.76;101842.84;5053396;28;20308;-58
2023/06/23 07:57:22;;;;;;;9.40;8.20;;;21.90;90.60;;;24.83;58.78;101840.97;5055913;28;20294;-59
2023/06/23 07:59:49;;;;;;;8.20;7.37;;;21.90;90.50;;;24.84;58.19;101855.25;5055668;28;20197;-59
2023/06/23 08:02:16;;;;;;;10.07;8.33;;;21.90;90.60;;;24.87;58.14;101860.16;5055686;28;20308;-59
2023/06/23 08:04:45;;;;;;;8.63;7.83;;;21.90;90.60;;;24.88;58.18;101856.41;5054762;28;20300;-57
2023/06/23 08:07:12;;;;;;;7.30;6.67;;;21.90;90.60;;;24.88;58.50;101851.84;5050613;28;20264;-58
2023/06/23 08:09:39;;;;;;;8.43;7.63;;;21.90;90.50;;;24.87;58.02;101860.97;5051570;28;20586;-59
2023/06/23 08:12:08;;;;;;;7.27;6.60;;;21.90;90.40;;;24.89;58.16;101868.81;5053065;28;20186;-57
2023/06/23 08:14:35;;;;;;;7.57;6.87;;;21.90;90.60;;;24.91;58.63;101869.41;5051415;28;20291;-58
2023/06/23 08:17:02;;;;;;;6.63;5.87;;;21.90;90.60;;;24.93;58.00;101869.97;5046926;28;20195;-58
2023/06/23 08:19:30;;;;;;;6.87;6.27;;;21.90;90.40;;;24.95;58.59;101873.25;5043365;28;20225;-57
2023/06/23 08:21:58;;;;;;;7.10;6.47;;;22.00;90.60;;;25.00;58.08;101878.72;5049813;28;20185;-59
2023/06/23 08:24:25;;;;;;;7.07;6.10;;;22.00;90.60;;;25.06;58.62;101877.75;5047156;28;20193;-57
2023/06/23 08:26:52;;;;;;;7.37;6.53;;;22.10;90.70;;;25.10;58.10;101876.22;5052396;28;20562;-58
2023/06/23 08:29:19;;;;;;;8.20;6.43;;;22.10;90.40;;;25.14;57.61;101887.31;5050455;28;20190;-57
2023/06/23 08:31:46;;;;;;;8.60;6.77;;;22.10;90.30;;;25.20;57.72;101892.56;5050232;28;20942;-58
2023/06/23 08:34:14;;;;;;;5.73;5.17;;;22.20;90.40;;;25.26;57.10;101893.47;5046371;28;20676;-58
2023/06/23 08:36:41;;;;;;;6.73;6.13;;;22.20;89.50;;;25.28;57.25;101900.25;5047932;28;20202;-58
2023/06/23 08:39:10;;;;;;;7.33;6.00;;;22.20;89.10;;;25.31;56.55;101910.56;5047612;28;20722;-56
2023/06/23 08:41:41;;;;;;;6.30;5.80;;;22.30;89.40;;;25.39;56.51;101912.84;5049618;28;20222;-57
2023/06/23 08:44:13;;;;;;;7.40;6.70;;;22.30;89.40;;;25.45;56.21;101911.91;5049606;28;20266;-58
2023/06/23 08:46:43;;;;;;;7.43;6.80;;;22.40;88.90;;;25.45;56.13;101911.91;5055185;28;20225;-63
2023/06/23 08:49:34;;;;;;;7.17;6.47;;;22.40;88.70;;;25.42;56.60;101920.44;5049566;28;20186;-59
2023/06/23 08:52:03;;;;;;;6.70;6.10;;;22.40;88.70;;;25.41;56.13;101920.72;5049695;28;20284;-58
2023/06/23 08:54:31;;;;;;;8.17;7.13;;;22.40;88.80;;;25.40;56.48;101925.28;5042009;28;20202;-60
2023/06/23 08:56:59;;;;;;;7.87;6.93;;;22.40;88.90;;;25.40;56.70;101930.66;5043695;28;20244;-59
2023/06/23 08:59:26;;;;;;;7.37;6.67;;;22.40;89.10;;;25.41;57.20;101936.88;5045756;28;20242;-60
2023/06/23 09:01:53;;;;;;;7.93;7.00;;;22.40;89.30;;;25.41;56.73;101934.97;5046969;28;20631;-58
2023/06/23 09:04:21;;;;;;;9.80;8.10;;;22.40;89.80;;;25.45;57.59;101938.88;5044471;28;20187;-60
2023/06/23 09:06:48;;;;;;;8.43;7.50;;;22.40;90.00;;;25.45;57.26;101946.97;5053369;28;20201;-53
2023/06/23 09:09:15;;;;;;;9.10;8.27;;;22.50;90.00;;;25.45;57.59;101938.06;5048123;28;20243;-60
2023/06/23 09:11:44;;;;;;;10.73;8.97;;;22.50;90.00;;;25.46;57.03;101940.50;5052170;28;20272;-59
2023/06/23 09:14:12;;;;;;;9.70;8.63;;;22.50;90.00;;;25.49;56.99;101949.97;5040305;28;20281;-56
2023/06/23 09:16:40;;;;;;;10.57;7.93;;;22.50;90.10;;;25.49;57.80;101942.72;5050173;28;20241;-60
2023/06/23 09:19:09;;;;;;;10.33;8.07;;;22.50;90.20;;;25.52;57.93;101949.50;5056100;28;20324;-58
2023/06/23 09:21:37;;;;;;;10.83;8.33;;;22.50;90.10;;;25.55;57.79;101949.03;5046431;28;20264;-59
2023/06/23 09:24:06;;;;;;;10.60;9.50;;;22.60;90.20;;;25.58;57.17;101953.13;5049023;28;20198;-59
2023/06/23 09:26:45;;;;;;;10.70;9.37;;;22.60;90.10;;;25.54;57.44;101950.91;5041557;28;20242;-59
2023/06/23 09:29:18;;;;;;;9.50;8.57;;;22.60;90.20;;;25.54;57.18;101959.00;5052582;28;20193;-57
2023/06/23 09:31:48;;;;;;;10.53;8.87;;;22.60;90.30;;;25.59;57.73;101965.53;5047925;28;20678;-57
2023/06/23 09:34:23;;;;;;;9.63;8.63;;;22.60;90.20;;;25.55;57.15;101968.69;5046247;28;20585;-59
2023/06/23 09:36:52;;;;;;;9.87;8.93;;;22.60;90.20;;;25.58;57.78;101967.41;5050875;28;20259;-59
2023/06/23 09:39:20;;;;;;;11.47;9.57;;;22.60;90.40;;;25.61;58.02;101977.72;5045957;28;20225;-58
2023/06/23 09:41:56;;;;;;;12.73;9.40;;;22.60;90.20;;;25.60;57.60;101977.97;5051394;28;20190;-58
2023/06/23 09:44:33;;;;;;;12.77;9.30;;;22.70;90.30;;;25.60;57.70;101983.34;5050453;28;20582;-58
2023/06/23 09:47:01;;;;;;;10.13;8.57;;;22.70;90.40;;;25.61;57.33;101984.97;5051103;28;20185;-60
2023/06/23 09:49:36;;;;;;;10.40;8.73;;;22.70;90.10;;;25.61;57.80;101984.97;5051041;28;20638;-59
2023/06/23 09:52:04;;;;;;;11.03;10.07;;;22.70;90.10;;;25.59;57.77;101992.50;5045842;28;20284;-57
2023/06/23 09:54:34;;;;;;;9.90;8.93;;;22.70;90.10;;;25.60;57.34;101994.16;5052169;28;20280;-54
2023/06/23 09:57:08;;;;;;;9.67;8.57;;;22.70;90.10;;;25.59;57.78;101987.09;5044467;28;20293;-60
2023/06/23 09:59:38;;;;;;;8.87;8.03;;;22.70;90.10;;;25.65;57.14;101999.63;5049278;28;20233;-57
2023/06/23 10:02:07;;;;;;;9.77;8.73;;;22.70;89.90;;;25.65;57.05;101997.72;5052311;28;20277;-59
2023/06/23 10:04:35;;;;;;;9.07;8.17;;;22.70;89.20;;;25.67;56.51;102000.19;5049102;28;20289;-60
2023/06/23 10:07:19;;;;;;;9.77;8.83;;;22.70;88.70;;;25.65;55.91;101996.94;5045288;28;20202;-59
2023/06/23 10:09:51;;;;;;;10.27;9.40;;;22.70;88.10;;;25.69;56.27;102004.28;5046274;28;20291;-60
2023/06/23 10:12:26;;;;;;;8.80;7.90;;;22.70;87.90;;;25.74;55.44;102006.25;5043783;28;20232;-58
2023/06/23 10:14:55;;;;;;;9.90;8.17;;;22.70;87.30;;;25.81;55.07;102009.63;5045041;28;20232;-59
2023/06/23 10:17:23;;;;;;;8.83;7.93;;;22.70;87.00;;;25.95;54.89;102013.63;5037470;28;20275;-59
2023/06/23 10:19:54;;;;;;;8.23;7.40;;;22.80;87.30;;;26.23;54.64;102016.28;5043487;28;20260;-60
2023/06/23 10:22:22;;;;;;;10.07;8.07;;;22.90;87.30;;;26.71;53.74;102007.50;5052516;28;20216;-59
2023/06/23 10:24:52;;;;;;;9.60;7.10;;;23.00;87.40;;;27.46;52.64;102015.72;5040227;28;20298;-58
2023/06/23 10:27:25;;;;;;;8.20;7.40;;;23.30;87.40;;;28.22;51.18;102014.53;5050884;28;20200;-58